sensor_id;sensor_type;location;lat;lon;timestamp;P1;durP1;ratioP1;P2;durP2;ratioP2
16579;SDS011;8402;51.466;6.806;2022-12-29T00:00:59;1.03;;;0.57;;
16579;SDS011;8402;51.466;6.806;2022-12-29T00:03:27;1.80;;;0.50;;
16579;SDS011;8402;51.466;6.806;2022-12-29T00:05:57;0.60;;;0.40;;
16579;SDS011;8402;51.466;6.806;2022-12-29T00:08:25;2.33;;;0.80;;
16579;SDS011;8402;51.466;6.806;2022-12-29T00:11:06;0.80;;;0.40;;
16579;SDS011;8402;51.466;6.806;2022-12-29T00:13:34;0.90;;;0.50;;
16579;SDS011;8402;51.466;6.806;2022-12-29T00:16:20;0.70;;;0.40;;
16579;SDS011;8402;51.466;6.806;2022-12-29T00:18:48;2.47;;;0.60;;
16579;SDS011;8402;51.466;6.806;2022-12-29T00:21:19;0.80;;;0.50;;
16579;SDS011;8402;51.466;6.806;2022-12-29T00:24:06;2.83;;;0.60;;
16579;SDS011;8402;51.466;6.806;2022-12-29T00:26:58;0.97;;;0.70;;
16579;SDS011;8402;51.466;6.806;2022-12-29T00:29:54;0.93;;;0.57;;
16579;SDS011;8402;51.466;6.806;2022-12-29T00:32:39;1.07;;;0.60;;
16579;SDS011;8402;51.466;6.806;2022-12-29T00:35:25;2.10;;;0.50;;
16579;SDS011;8402;51.466;6.806;2022-12-29T00:37:58;2.27;;;0.50;;
16579;SDS011;8402;51.466;6.806;2022-12-29T00:40:46;1.83;;;0.70;;
16579;SDS011;8402;51.466;6.806;2022-12-29T00:43:32;1.63;;;0.60;;
16579;SDS011;8402;51.466;6.806;2022-12-29T00:46:17;0.57;;;0.40;;
16579;SDS011;8402;51.466;6.806;2022-12-29T00:48:45;3.53;;;0.60;;
16579;SDS011;8402;51.466;6.806;2022-12-29T00:51:31;1.33;;;0.70;;
16579;SDS011;8402;51.466;6.806;2022-12-29T00:54:00;0.53;;;0.40;;
16579;SDS011;8402;51.466;6.806;2022-12-29T00:56:28;0.27;;;0.23;;
16579;SDS011;8402;51.466;6.806;2022-12-29T00:58:59;0.60;;;0.40;;
16579;SDS011;8402;51.466;6.806;2022-12-29T01:01:27;2.23;;;0.33;;
16579;SDS011;8402;51.466;6.806;2022-12-29T01:03:56;0.60;;;0.50;;
16579;SDS011;8402;51.466;6.806;2022-12-29T01:06:29;0.47;;;0.37;;
16579;SDS011;8402;51.466;6.806;2022-12-29T01:08:58;1.07;;;0.60;;
16579;SDS011;8402;51.466;6.806;2022-12-29T01:11:45;0.97;;;0.50;;
16579;SDS011;8402;51.466;6.806;2022-12-29T01:14:13;1.23;;;0.50;;
16579;SDS011;8402;51.466;6.806;2022-12-29T01:16:43;1.97;;;0.40;;
16579;SDS011;8402;51.466;6.806;2022-12-29T01:19:11;2.83;;;0.30;;
16579;SDS011;8402;51.466;6.806;2022-12-29T01:21:39;2.07;;;0.63;;
16579;SDS011;8402;51.466;6.806;2022-12-29T01:24:07;1.23;;;0.60;;
16579;SDS011;8402;51.466;6.806;2022-12-29T01:26:35;2.03;;;0.83;;
16579;SDS011;8402;51.466;6.806;2022-12-29T01:29:04;1.50;;;0.80;;
16579;SDS011;8402;51.466;6.806;2022-12-29T01:31:32;1.47;;;0.73;;
16579;SDS011;8402;51.466;6.806;2022-12-29T01:34:00;1.13;;;0.60;;
16579;SDS011;8402;51.466;6.806;2022-12-29T01:36:28;1.33;;;0.50;;
16579;SDS011;8402;51.466;6.806;2022-12-29T01:38:57;2.23;;;0.50;;
16579;SDS011;8402;51.466;6.806;2022-12-29T01:41:25;1.20;;;0.70;;
16579;SDS011;8402;51.466;6.806;2022-12-29T01:43:54;0.67;;;0.40;;
16579;SDS011;8402;51.466;6.806;2022-12-29T01:46:26;0.70;;;0.30;;
16579;SDS011;8402;51.466;6.806;2022-12-29T01:48:59;0.60;;;0.40;;
16579;SDS011;8402;51.466;6.806;2022-12-29T01:51:33;0.83;;;0.50;;
16579;SDS011;8402;51.466;6.806;2022-12-29T01:54:05;0.60;;;0.40;;
16579;SDS011;8402;51.466;6.806;2022-12-29T01:56:37;2.03;;;0.40;;
16579;SDS011;8402;51.466;6.806;2022-12-29T01:59:08;0.70;;;0.43;;
16579;SDS011;8402;51.466;6.806;2022-12-29T02:01:41;0.80;;;0.43;;
16579;SDS011;8402;51.466;6.806;2022-12-29T02:04:09;0.50;;;0.20;;
16579;SDS011;8402;51.466;6.806;2022-12-29T02:06:41;0.60;;;0.37;;
16579;SDS011;8402;51.466;6.806;2022-12-29T02:09:13;1.63;;;0.50;;
16579;SDS011;8402;51.466;6.806;2022-12-29T02:11:43;0.77;;;0.50;;
16579;SDS011;8402;51.466;6.806;2022-12-29T02:14:12;2.60;;;0.80;;
16579;SDS011;8402;51.466;6.806;2022-12-29T02:16:52;0.80;;;0.43;;
16579;SDS011;8402;51.466;6.806;2022-12-29T02:19:38;1.60;;;0.50;;
16579;SDS011;8402;51.466;6.806;2022-12-29T02:22:22;2.03;;;0.70;;
16579;SDS011;8402;51.466;6.806;2022-12-29T02:31:05;2.67;;;1.00;;
16579;SDS011;8402;51.466;6.806;2022-12-29T02:33:41;2.83;;;0.90;;
16579;SDS011;8402;51.466;6.806;2022-12-29T02:36:23;2.70;;;0.90;;
16579;SDS011;8402;51.466;6.806;2022-12-29T02:38:59;5.90;;;1.07;;
16579;SDS011;8402;51.466;6.806;2022-12-29T02:41:33;1.50;;;0.73;;
16579;SDS011;8402;51.466;6.806;2022-12-29T02:44:08;2.10;;;0.90;;
16579;SDS011;8402;51.466;6.806;2022-12-29T02:46:45;3.70;;;0.80;;
16579;SDS011;8402;51.466;6.806;2022-12-29T02:49:19;1.40;;;0.73;;
16579;SDS011;8402;51.466;6.806;2022-12-29T02:51:55;1.43;;;0.60;;
16579;SDS011;8402;51.466;6.806;2022-12-29T02:54:27;1.53;;;0.80;;
16579;SDS011;8402;51.466;6.806;2022-12-29T02:57:08;3.83;;;0.90;;
16579;SDS011;8402;51.466;6.806;2022-12-29T02:59:39;2.30;;;0.83;;
16579;SDS011;8402;51.466;6.806;2022-12-29T03:02:14;2.03;;;0.63;;
16579;SDS011;8402;51.466;6.806;2022-12-29T03:07:51;1.53;;;0.80;;
16579;SDS011;8402;51.466;6.806;2022-12-29T03:10:35;3.57;;;1.00;;
16579;SDS011;8402;51.466;6.806;2022-12-29T03:13:11;2.47;;;1.00;;
16579;SDS011;8402;51.466;6.806;2022-12-29T03:16:06;1.80;;;0.87;;
16579;SDS011;8402;51.466;6.806;2022-12-29T03:18:45;6.60;;;1.43;;
16579;SDS011;8402;51.466;6.806;2022-12-29T03:21:22;3.10;;;1.17;;
16579;SDS011;8402;51.466;6.806;2022-12-29T03:24:10;5.43;;;1.50;;
16579;SDS011;8402;51.466;6.806;2022-12-29T03:26:40;4.63;;;2.27;;
16579;SDS011;8402;51.466;6.806;2022-12-29T03:29:10;4.97;;;1.60;;
16579;SDS011;8402;51.466;6.806;2022-12-29T03:31:40;3.27;;;1.30;;
16579;SDS011;8402;51.466;6.806;2022-12-29T03:34:11;5.27;;;1.40;;
16579;SDS011;8402;51.466;6.806;2022-12-29T03:36:42;3.80;;;1.20;;
16579;SDS011;8402;51.466;6.806;2022-12-29T03:39:15;3.33;;;1.03;;
16579;SDS011;8402;51.466;6.806;2022-12-29T03:41:47;4.57;;;1.30;;
16579;SDS011;8402;51.466;6.806;2022-12-29T03:44:18;3.50;;;1.30;;
16579;SDS011;8402;51.466;6.806;2022-12-29T03:46:46;2.00;;;1.20;;
16579;SDS011;8402;51.466;6.806;2022-12-29T03:49:15;2.90;;;1.20;;
16579;SDS011;8402;51.466;6.806;2022-12-29T03:51:43;3.93;;;0.97;;
16579;SDS011;8402;51.466;6.806;2022-12-29T03:54:11;1.50;;;0.80;;
16579;SDS011;8402;51.466;6.806;2022-12-29T03:56:39;3.33;;;0.83;;
16579;SDS011;8402;51.466;6.806;2022-12-29T03:59:07;3.83;;;1.30;;
16579;SDS011;8402;51.466;6.806;2022-12-29T04:01:35;2.30;;;0.63;;
16579;SDS011;8402;51.466;6.806;2022-12-29T04:04:04;0.80;;;0.70;;
16579;SDS011;8402;51.466;6.806;2022-12-29T04:06:33;1.97;;;0.70;;
16579;SDS011;8402;51.466;6.806;2022-12-29T04:09:01;1.43;;;0.50;;
16579;SDS011;8402;51.466;6.806;2022-12-29T04:11:29;3.57;;;0.43;;
16579;SDS011;8402;51.466;6.806;2022-12-29T04:13:59;1.83;;;0.50;;
16579;SDS011;8402;51.466;6.806;2022-12-29T04:16:27;0.80;;;0.43;;
16579;SDS011;8402;51.466;6.806;2022-12-29T04:18:55;1.03;;;0.67;;
16579;SDS011;8402;51.466;6.806;2022-12-29T04:21:23;1.90;;;0.60;;
16579;SDS011;8402;51.466;6.806;2022-12-29T04:23:52;0.60;;;0.40;;
16579;SDS011;8402;51.466;6.806;2022-12-29T04:26:20;0.77;;;0.40;;
16579;SDS011;8402;51.466;6.806;2022-12-29T04:28:48;0.50;;;0.40;;
16579;SDS011;8402;51.466;6.806;2022-12-29T04:31:16;0.70;;;0.30;;
16579;SDS011;8402;51.466;6.806;2022-12-29T04:33:44;1.70;;;0.40;;
16579;SDS011;8402;51.466;6.806;2022-12-29T04:36:11;0.97;;;0.43;;
16579;SDS011;8402;51.466;6.806;2022-12-29T04:38:39;0.63;;;0.43;;
16579;SDS011;8402;51.466;6.806;2022-12-29T04:41:08;1.60;;;0.60;;
16579;SDS011;8402;51.466;6.806;2022-12-29T04:43:36;1.23;;;0.50;;
16579;SDS011;8402;51.466;6.806;2022-12-29T04:46:04;2.20;;;0.87;;
16579;SDS011;8402;51.466;6.806;2022-12-29T04:48:32;6.50;;;0.80;;
16579;SDS011;8402;51.466;6.806;2022-12-29T04:51:00;5.07;;;1.00;;
16579;SDS011;8402;51.466;6.806;2022-12-29T04:53:28;3.10;;;0.70;;
16579;SDS011;8402;51.466;6.806;2022-12-29T04:55:56;3.70;;;0.93;;
16579;SDS011;8402;51.466;6.806;2022-12-29T04:58:25;3.67;;;1.00;;
16579;SDS011;8402;51.466;6.806;2022-12-29T05:00:53;1.07;;;0.67;;
16579;SDS011;8402;51.466;6.806;2022-12-29T05:03:21;1.33;;;0.50;;
16579;SDS011;8402;51.466;6.806;2022-12-29T05:05:49;0.57;;;0.40;;
16579;SDS011;8402;51.466;6.806;2022-12-29T05:08:16;1.57;;;0.57;;
16579;SDS011;8402;51.466;6.806;2022-12-29T05:10:52;2.47;;;0.40;;
16579;SDS011;8402;51.466;6.806;2022-12-29T05:13:20;2.17;;;0.57;;
16579;SDS011;8402;51.466;6.806;2022-12-29T05:15:50;0.40;;;0.30;;
16579;SDS011;8402;51.466;6.806;2022-12-29T05:18:19;0.90;;;0.40;;
16579;SDS011;8402;51.466;6.806;2022-12-29T05:20:47;0.60;;;0.50;;
16579;SDS011;8402;51.466;6.806;2022-12-29T05:23:15;3.27;;;0.70;;
16579;SDS011;8402;51.466;6.806;2022-12-29T05:25:44;4.10;;;0.60;;
16579;SDS011;8402;51.466;6.806;2022-12-29T05:28:12;1.27;;;0.40;;
16579;SDS011;8402;51.466;6.806;2022-12-29T05:30:40;4.07;;;0.50;;
16579;SDS011;8402;51.466;6.806;2022-12-29T05:33:10;2.37;;;0.43;;
16579;SDS011;8402;51.466;6.806;2022-12-29T05:35:38;0.83;;;0.37;;
16579;SDS011;8402;51.466;6.806;2022-12-29T05:38:06;1.13;;;0.30;;
16579;SDS011;8402;51.466;6.806;2022-12-29T05:40:34;1.93;;;0.80;;
16579;SDS011;8402;51.466;6.806;2022-12-29T05:43:01;1.30;;;0.47;;
16579;SDS011;8402;51.466;6.806;2022-12-29T05:45:29;3.03;;;0.47;;
16579;SDS011;8402;51.466;6.806;2022-12-29T05:47:57;0.93;;;0.40;;
16579;SDS011;8402;51.466;6.806;2022-12-29T05:50:26;4.00;;;0.70;;
16579;SDS011;8402;51.466;6.806;2022-12-29T05:52:54;2.40;;;0.63;;
16579;SDS011;8402;51.466;6.806;2022-12-29T05:55:22;2.10;;;0.57;;
16579;SDS011;8402;51.466;6.806;2022-12-29T05:57:50;2.80;;;0.43;;
16579;SDS011;8402;51.466;6.806;2022-12-29T06:00:18;0.90;;;0.37;;
16579;SDS011;8402;51.466;6.806;2022-12-29T06:02:46;2.53;;;1.13;;
16579;SDS011;8402;51.466;6.806;2022-12-29T06:05:14;1.90;;;0.37;;
16579;SDS011;8402;51.466;6.806;2022-12-29T06:07:43;0.67;;;0.33;;
16579;SDS011;8402;51.466;6.806;2022-12-29T06:10:12;1.10;;;0.50;;
16579;SDS011;8402;51.466;6.806;2022-12-29T06:12:39;0.53;;;0.37;;
16579;SDS011;8402;51.466;6.806;2022-12-29T06:15:08;1.93;;;0.60;;
16579;SDS011;8402;51.466;6.806;2022-12-29T06:17:36;1.43;;;0.47;;
16579;SDS011;8402;51.466;6.806;2022-12-29T06:20:04;2.20;;;0.70;;
16579;SDS011;8402;51.466;6.806;2022-12-29T06:22:33;1.40;;;0.60;;
16579;SDS011;8402;51.466;6.806;2022-12-29T06:25:02;3.60;;;0.90;;
16579;SDS011;8402;51.466;6.806;2022-12-29T06:27:32;1.90;;;0.67;;
16579;SDS011;8402;51.466;6.806;2022-12-29T06:30:00;2.30;;;0.57;;
16579;SDS011;8402;51.466;6.806;2022-12-29T06:32:28;1.20;;;0.60;;
16579;SDS011;8402;51.466;6.806;2022-12-29T06:34:56;3.20;;;0.73;;
16579;SDS011;8402;51.466;6.806;2022-12-29T06:37:23;2.40;;;0.73;;
16579;SDS011;8402;51.466;6.806;2022-12-29T06:39:51;4.40;;;0.60;;
16579;SDS011;8402;51.466;6.806;2022-12-29T06:42:21;4.93;;;0.70;;
16579;SDS011;8402;51.466;6.806;2022-12-29T06:44:48;3.30;;;0.70;;
16579;SDS011;8402;51.466;6.806;2022-12-29T06:47:16;2.13;;;0.57;;
16579;SDS011;8402;51.466;6.806;2022-12-29T06:49:45;2.90;;;0.70;;
16579;SDS011;8402;51.466;6.806;2022-12-29T06:52:13;3.70;;;0.93;;
16579;SDS011;8402;51.466;6.806;2022-12-29T06:54:41;2.40;;;0.50;;
16579;SDS011;8402;51.466;6.806;2022-12-29T06:57:08;3.30;;;0.80;;
16579;SDS011;8402;51.466;6.806;2022-12-29T06:59:38;5.43;;;1.30;;
16579;SDS011;8402;51.466;6.806;2022-12-29T07:02:06;10.10;;;0.80;;
16579;SDS011;8402;51.466;6.806;2022-12-29T07:04:34;8.47;;;0.73;;
16579;SDS011;8402;51.466;6.806;2022-12-29T07:07:02;3.77;;;0.73;;
16579;SDS011;8402;51.466;6.806;2022-12-29T07:09:30;8.00;;;0.70;;
16579;SDS011;8402;51.466;6.806;2022-12-29T07:11:58;4.10;;;0.97;;
16579;SDS011;8402;51.466;6.806;2022-12-29T07:14:26;4.37;;;0.83;;
16579;SDS011;8402;51.466;6.806;2022-12-29T07:16:55;4.03;;;0.77;;
16579;SDS011;8402;51.466;6.806;2022-12-29T07:19:23;2.33;;;0.73;;
16579;SDS011;8402;51.466;6.806;2022-12-29T07:21:51;6.40;;;0.53;;
16579;SDS011;8402;51.466;6.806;2022-12-29T07:24:21;1.20;;;0.50;;
16579;SDS011;8402;51.466;6.806;2022-12-29T07:26:49;6.20;;;0.80;;
16579;SDS011;8402;51.466;6.806;2022-12-29T07:29:17;3.20;;;0.80;;
16579;SDS011;8402;51.466;6.806;2022-12-29T07:31:45;4.57;;;0.67;;
16579;SDS011;8402;51.466;6.806;2022-12-29T07:34:14;3.07;;;1.10;;
16579;SDS011;8402;51.466;6.806;2022-12-29T07:36:42;6.93;;;0.83;;
16579;SDS011;8402;51.466;6.806;2022-12-29T07:39:10;3.47;;;0.93;;
16579;SDS011;8402;51.466;6.806;2022-12-29T07:41:38;3.03;;;0.67;;
16579;SDS011;8402;51.466;6.806;2022-12-29T07:44:08;3.47;;;1.00;;
16579;SDS011;8402;51.466;6.806;2022-12-29T07:46:36;7.93;;;0.90;;
16579;SDS011;8402;51.466;6.806;2022-12-29T07:49:24;6.53;;;0.70;;
16579;SDS011;8402;51.466;6.806;2022-12-29T07:51:52;2.27;;;0.60;;
16579;SDS011;8402;51.466;6.806;2022-12-29T07:54:19;5.50;;;1.20;;
16579;SDS011;8402;51.466;6.806;2022-12-29T07:56:49;3.87;;;0.60;;
16579;SDS011;8402;51.466;6.806;2022-12-29T07:59:17;4.17;;;0.80;;
16579;SDS011;8402;51.466;6.806;2022-12-29T08:01:45;4.00;;;0.50;;
16579;SDS011;8402;51.466;6.806;2022-12-29T08:04:13;3.47;;;0.40;;
16579;SDS011;8402;51.466;6.806;2022-12-29T08:06:43;3.17;;;1.00;;
16579;SDS011;8402;51.466;6.806;2022-12-29T08:09:11;3.27;;;0.80;;
16579;SDS011;8402;51.466;6.806;2022-12-29T08:11:47;3.97;;;0.90;;
16579;SDS011;8402;51.466;6.806;2022-12-29T08:14:15;4.37;;;1.20;;
16579;SDS011;8402;51.466;6.806;2022-12-29T08:16:43;7.93;;;0.70;;
16579;SDS011;8402;51.466;6.806;2022-12-29T08:19:11;4.93;;;0.90;;
16579;SDS011;8402;51.466;6.806;2022-12-29T08:21:39;3.57;;;0.73;;
16579;SDS011;8402;51.466;6.806;2022-12-29T08:24:09;6.70;;;0.90;;
16579;SDS011;8402;51.466;6.806;2022-12-29T08:26:37;6.93;;;0.83;;
16579;SDS011;8402;51.466;6.806;2022-12-29T08:29:05;3.40;;;0.97;;
16579;SDS011;8402;51.466;6.806;2022-12-29T08:31:33;3.70;;;0.90;;
16579;SDS011;8402;51.466;6.806;2022-12-29T08:34:02;4.83;;;0.90;;
16579;SDS011;8402;51.466;6.806;2022-12-29T08:36:30;2.13;;;0.97;;
16579;SDS011;8402;51.466;6.806;2022-12-29T08:38:58;4.40;;;0.90;;
16579;SDS011;8402;51.466;6.806;2022-12-29T08:41:28;3.77;;;0.90;;
16579;SDS011;8402;51.466;6.806;2022-12-29T08:43:56;6.83;;;0.83;;
16579;SDS011;8402;51.466;6.806;2022-12-29T08:46:23;5.10;;;0.77;;
16579;SDS011;8402;51.466;6.806;2022-12-29T08:48:51;3.13;;;0.80;;
16579;SDS011;8402;51.466;6.806;2022-12-29T08:51:20;3.97;;;1.07;;
16579;SDS011;8402;51.466;6.806;2022-12-29T08:53:50;4.27;;;0.70;;
16579;SDS011;8402;51.466;6.806;2022-12-29T08:56:18;5.83;;;0.70;;
16579;SDS011;8402;51.466;6.806;2022-12-29T08:58:47;4.97;;;0.73;;
16579;SDS011;8402;51.466;6.806;2022-12-29T09:01:15;4.53;;;0.70;;
16579;SDS011;8402;51.466;6.806;2022-12-29T09:03:43;3.70;;;0.73;;
16579;SDS011;8402;51.466;6.806;2022-12-29T09:06:31;4.50;;;0.70;;
16579;SDS011;8402;51.466;6.806;2022-12-29T09:09:05;7.17;;;0.90;;
16579;SDS011;8402;51.466;6.806;2022-12-29T09:11:33;3.70;;;0.80;;
16579;SDS011;8402;51.466;6.806;2022-12-29T09:14:03;6.70;;;1.00;;
16579;SDS011;8402;51.466;6.806;2022-12-29T09:16:30;7.73;;;1.03;;
16579;SDS011;8402;51.466;6.806;2022-12-29T09:18:59;7.27;;;1.20;;
16579;SDS011;8402;51.466;6.806;2022-12-29T09:21:27;5.80;;;0.90;;
16579;SDS011;8402;51.466;6.806;2022-12-29T09:23:55;4.50;;;0.90;;
16579;SDS011;8402;51.466;6.806;2022-12-29T09:26:23;7.97;;;1.23;;
16579;SDS011;8402;51.466;6.806;2022-12-29T09:28:51;5.33;;;0.93;;
16579;SDS011;8402;51.466;6.806;2022-12-29T09:31:20;6.17;;;1.07;;
16579;SDS011;8402;51.466;6.806;2022-12-29T09:33:48;5.70;;;1.20;;
16579;SDS011;8402;51.466;6.806;2022-12-29T09:36:16;5.47;;;0.63;;
16579;SDS011;8402;51.466;6.806;2022-12-29T09:38:44;5.63;;;0.73;;
16579;SDS011;8402;51.466;6.806;2022-12-29T09:41:14;5.27;;;0.80;;
16579;SDS011;8402;51.466;6.806;2022-12-29T09:46:46;4.60;;;1.30;;
16579;SDS011;8402;51.466;6.806;2022-12-29T09:49:19;4.30;;;1.03;;
16579;SDS011;8402;51.466;6.806;2022-12-29T09:51:53;4.03;;;0.90;;
16579;SDS011;8402;51.466;6.806;2022-12-29T09:54:24;2.90;;;0.67;;
16579;SDS011;8402;51.466;6.806;2022-12-29T09:57:04;2.87;;;0.90;;
16579;SDS011;8402;51.466;6.806;2022-12-29T09:59:38;5.63;;;1.30;;
16579;SDS011;8402;51.466;6.806;2022-12-29T10:02:15;5.43;;;1.00;;
16579;SDS011;8402;51.466;6.806;2022-12-29T10:04:51;3.73;;;0.73;;
16579;SDS011;8402;51.466;6.806;2022-12-29T10:07:22;5.60;;;1.00;;
16579;SDS011;8402;51.466;6.806;2022-12-29T10:10:01;7.40;;;0.90;;
16579;SDS011;8402;51.466;6.806;2022-12-29T10:12:43;3.17;;;0.70;;
16579;SDS011;8402;51.466;6.806;2022-12-29T10:15:38;10.43;;;1.13;;
16579;SDS011;8402;51.466;6.806;2022-12-29T10:18:18;3.47;;;1.07;;
16579;SDS011;8402;51.466;6.806;2022-12-29T10:21:01;5.17;;;0.90;;
16579;SDS011;8402;51.466;6.806;2022-12-29T10:23:38;3.83;;;0.60;;
16579;SDS011;8402;51.466;6.806;2022-12-29T10:26:10;8.73;;;1.00;;
16579;SDS011;8402;51.466;6.806;2022-12-29T10:28:42;9.57;;;1.13;;
16579;SDS011;8402;51.466;6.806;2022-12-29T10:31:13;4.17;;;0.90;;
16579;SDS011;8402;51.466;6.806;2022-12-29T10:33:48;3.70;;;0.63;;
16579;SDS011;8402;51.466;6.806;2022-12-29T10:36:21;3.17;;;0.97;;
16579;SDS011;8402;51.466;6.806;2022-12-29T10:38:58;3.90;;;0.90;;
16579;SDS011;8402;51.466;6.806;2022-12-29T10:41:36;8.07;;;1.33;;
16579;SDS011;8402;51.466;6.806;2022-12-29T10:44:08;7.60;;;1.10;;
16579;SDS011;8402;51.466;6.806;2022-12-29T10:46:41;5.30;;;0.83;;
16579;SDS011;8402;51.466;6.806;2022-12-29T10:49:12;7.37;;;0.90;;
16579;SDS011;8402;51.466;6.806;2022-12-29T10:51:47;7.83;;;1.10;;
16579;SDS011;8402;51.466;6.806;2022-12-29T10:54:19;4.30;;;0.97;;
16579;SDS011;8402;51.466;6.806;2022-12-29T10:56:56;5.77;;;0.90;;
16579;SDS011;8402;51.466;6.806;2022-12-29T10:59:29;4.40;;;0.70;;
16579;SDS011;8402;51.466;6.806;2022-12-29T11:02:00;7.30;;;1.40;;
16579;SDS011;8402;51.466;6.806;2022-12-29T11:04:48;2.43;;;0.60;;
16579;SDS011;8402;51.466;6.806;2022-12-29T11:07:22;6.40;;;0.80;;
16579;SDS011;8402;51.466;6.806;2022-12-29T11:09:53;7.77;;;1.03;;
16579;SDS011;8402;51.466;6.806;2022-12-29T11:12:23;6.00;;;0.97;;
16579;SDS011;8402;51.466;6.806;2022-12-29T11:15:02;5.00;;;1.40;;
16579;SDS011;8402;51.466;6.806;2022-12-29T11:17:43;4.17;;;1.00;;
16579;SDS011;8402;51.466;6.806;2022-12-29T11:23:05;4.30;;;0.67;;
16579;SDS011;8402;51.466;6.806;2022-12-29T11:29:04;2.87;;;0.90;;
16579;SDS011;8402;51.466;6.806;2022-12-29T11:31:42;2.17;;;0.70;;
16579;SDS011;8402;51.466;6.806;2022-12-29T11:34:16;3.50;;;0.97;;
16579;SDS011;8402;51.466;6.806;2022-12-29T11:36:47;4.00;;;1.00;;
16579;SDS011;8402;51.466;6.806;2022-12-29T11:39:25;4.37;;;0.97;;
16579;SDS011;8402;51.466;6.806;2022-12-29T11:41:56;3.70;;;0.63;;
16579;SDS011;8402;51.466;6.806;2022-12-29T11:44:25;5.63;;;1.07;;
16579;SDS011;8402;51.466;6.806;2022-12-29T11:46:55;6.07;;;0.90;;
16579;SDS011;8402;51.466;6.806;2022-12-29T11:49:23;8.43;;;1.23;;
16579;SDS011;8402;51.466;6.806;2022-12-29T11:51:55;5.43;;;1.20;;
16579;SDS011;8402;51.466;6.806;2022-12-29T11:54:24;3.67;;;1.23;;
16579;SDS011;8402;51.466;6.806;2022-12-29T11:56:54;7.10;;;0.90;;
16579;SDS011;8402;51.466;6.806;2022-12-29T11:59:34;5.77;;;0.97;;
16579;SDS011;8402;51.466;6.806;2022-12-29T12:02:22;5.40;;;0.97;;
16579;SDS011;8402;51.466;6.806;2022-12-29T12:05:12;5.80;;;1.30;;
16579;SDS011;8402;51.466;6.806;2022-12-29T12:07:49;5.87;;;1.40;;
16579;SDS011;8402;51.466;6.806;2022-12-29T12:10:21;6.10;;;1.10;;
16579;SDS011;8402;51.466;6.806;2022-12-29T12:12:58;5.30;;;1.10;;
16579;SDS011;8402;51.466;6.806;2022-12-29T12:15:35;5.30;;;1.10;;
16579;SDS011;8402;51.466;6.806;2022-12-29T12:18:13;6.57;;;1.10;;
16579;SDS011;8402;51.466;6.806;2022-12-29T12:20:48;5.53;;;0.80;;
16579;SDS011;8402;51.466;6.806;2022-12-29T12:23:38;7.87;;;1.17;;
16579;SDS011;8402;51.466;6.806;2022-12-29T12:26:12;3.17;;;0.80;;
16579;SDS011;8402;51.466;6.806;2022-12-29T12:28:46;10.30;;;1.30;;
16579;SDS011;8402;51.466;6.806;2022-12-29T12:31:23;5.83;;;1.27;;
16579;SDS011;8402;51.466;6.806;2022-12-29T12:34:01;4.60;;;0.87;;
16579;SDS011;8402;51.466;6.806;2022-12-29T12:36:39;4.30;;;1.00;;
16579;SDS011;8402;51.466;6.806;2022-12-29T12:39:27;8.03;;;1.17;;
16579;SDS011;8402;51.466;6.806;2022-12-29T12:42:12;6.77;;;1.30;;
16579;SDS011;8402;51.466;6.806;2022-12-29T12:44:55;9.23;;;1.30;;
16579;SDS011;8402;51.466;6.806;2022-12-29T12:47:40;3.83;;;1.03;;
16579;SDS011;8402;51.466;6.806;2022-12-29T12:53:22;5.17;;;1.00;;
16579;SDS011;8402;51.466;6.806;2022-12-29T12:56:10;5.37;;;1.00;;
16579;SDS011;8402;51.466;6.806;2022-12-29T12:58:59;4.87;;;1.10;;
16579;SDS011;8402;51.466;6.806;2022-12-29T13:01:38;9.50;;;1.27;;
16579;SDS011;8402;51.466;6.806;2022-12-29T13:04:32;8.23;;;1.30;;
16579;SDS011;8402;51.466;6.806;2022-12-29T13:07:18;5.87;;;1.33;;
16579;SDS011;8402;51.466;6.806;2022-12-29T13:09:58;3.33;;;0.60;;
16579;SDS011;8402;51.466;6.806;2022-12-29T13:12:41;10.73;;;1.10;;
16579;SDS011;8402;51.466;6.806;2022-12-29T13:15:20;9.83;;;1.00;;
16579;SDS011;8402;51.466;6.806;2022-12-29T13:18:04;11.97;;;1.00;;
16579;SDS011;8402;51.466;6.806;2022-12-29T13:20:41;6.40;;;1.30;;
16579;SDS011;8402;51.466;6.806;2022-12-29T13:23:16;5.90;;;1.20;;
16579;SDS011;8402;51.466;6.806;2022-12-29T13:25:51;9.93;;;1.33;;
16579;SDS011;8402;51.466;6.806;2022-12-29T13:28:29;5.63;;;1.17;;
16579;SDS011;8402;51.466;6.806;2022-12-29T13:31:04;10.87;;;1.20;;
16579;SDS011;8402;51.466;6.806;2022-12-29T13:33:43;6.77;;;1.20;;
16579;SDS011;8402;51.466;6.806;2022-12-29T13:36:19;4.07;;;1.07;;
16579;SDS011;8402;51.466;6.806;2022-12-29T13:38:52;3.87;;;1.00;;
16579;SDS011;8402;51.466;6.806;2022-12-29T13:41:29;4.63;;;1.30;;
16579;SDS011;8402;51.466;6.806;2022-12-29T13:44:03;7.40;;;1.40;;
16579;SDS011;8402;51.466;6.806;2022-12-29T13:46:33;3.40;;;0.90;;
16579;SDS011;8402;51.466;6.806;2022-12-29T13:49:06;6.63;;;0.90;;
16579;SDS011;8402;51.466;6.806;2022-12-29T13:51:41;5.20;;;0.93;;
16579;SDS011;8402;51.466;6.806;2022-12-29T13:54:17;4.80;;;1.00;;
16579;SDS011;8402;51.466;6.806;2022-12-29T13:56:55;6.40;;;1.10;;
16579;SDS011;8402;51.466;6.806;2022-12-29T13:59:36;7.40;;;1.00;;
16579;SDS011;8402;51.466;6.806;2022-12-29T14:02:15;5.07;;;0.90;;
16579;SDS011;8402;51.466;6.806;2022-12-29T14:04:55;3.53;;;1.27;;
16579;SDS011;8402;51.466;6.806;2022-12-29T14:07:25;5.67;;;1.40;;
16579;SDS011;8402;51.466;6.806;2022-12-29T14:09:54;6.37;;;1.00;;
16579;SDS011;8402;51.466;6.806;2022-12-29T14:12:32;4.93;;;1.13;;
16579;SDS011;8402;51.466;6.806;2022-12-29T14:15:19;6.73;;;1.13;;
16579;SDS011;8402;51.466;6.806;2022-12-29T14:20:37;9.73;;;1.67;;
16579;SDS011;8402;51.466;6.806;2022-12-29T14:23:24;5.97;;;1.13;;
16579;SDS011;8402;51.466;6.806;2022-12-29T14:26:09;8.40;;;1.50;;
16579;SDS011;8402;51.466;6.806;2022-12-29T14:28:40;4.03;;;1.00;;
16579;SDS011;8402;51.466;6.806;2022-12-29T14:36:56;7.67;;;1.30;;
16579;SDS011;8402;51.466;6.806;2022-12-29T14:39:34;4.03;;;0.70;;
16579;SDS011;8402;51.466;6.806;2022-12-29T14:42:05;8.20;;;1.13;;
16579;SDS011;8402;51.466;6.806;2022-12-29T14:44:48;7.77;;;1.00;;
16579;SDS011;8402;51.466;6.806;2022-12-29T14:47:19;5.77;;;1.20;;
16579;SDS011;8402;51.466;6.806;2022-12-29T14:49:50;7.77;;;1.10;;
16579;SDS011;8402;51.466;6.806;2022-12-29T14:52:19;5.40;;;0.87;;
16579;SDS011;8402;51.466;6.806;2022-12-29T14:54:51;4.93;;;0.80;;
16579;SDS011;8402;51.466;6.806;2022-12-29T14:57:22;8.67;;;1.33;;
16579;SDS011;8402;51.466;6.806;2022-12-29T14:59:56;3.47;;;0.90;;
16579;SDS011;8402;51.466;6.806;2022-12-29T15:02:33;4.27;;;0.90;;
16579;SDS011;8402;51.466;6.806;2022-12-29T15:05:05;3.93;;;1.00;;
16579;SDS011;8402;51.466;6.806;2022-12-29T15:07:47;5.17;;;1.00;;
16579;SDS011;8402;51.466;6.806;2022-12-29T15:10:16;4.90;;;1.20;;
16579;SDS011;8402;51.466;6.806;2022-12-29T15:12:47;7.07;;;1.20;;
16579;SDS011;8402;51.466;6.806;2022-12-29T15:15:21;4.23;;;0.97;;
16579;SDS011;8402;51.466;6.806;2022-12-29T15:17:52;4.77;;;1.10;;
16579;SDS011;8402;51.466;6.806;2022-12-29T15:20:24;9.13;;;1.00;;
16579;SDS011;8402;51.466;6.806;2022-12-29T15:22:55;7.17;;;0.80;;
16579;SDS011;8402;51.466;6.806;2022-12-29T15:25:26;4.90;;;1.00;;
16579;SDS011;8402;51.466;6.806;2022-12-29T15:27:55;3.00;;;1.00;;
16579;SDS011;8402;51.466;6.806;2022-12-29T15:30:27;4.30;;;1.00;;
16579;SDS011;8402;51.466;6.806;2022-12-29T15:32:56;4.17;;;1.20;;
16579;SDS011;8402;51.466;6.806;2022-12-29T15:35:29;8.47;;;1.00;;
16579;SDS011;8402;51.466;6.806;2022-12-29T15:37:59;5.67;;;1.10;;
16579;SDS011;8402;51.466;6.806;2022-12-29T15:40:30;9.87;;;1.70;;
16579;SDS011;8402;51.466;6.806;2022-12-29T15:45:49;4.90;;;0.93;;
16579;SDS011;8402;51.466;6.806;2022-12-29T15:48:20;1.30;;;0.30;;
16579;SDS011;8402;51.466;6.806;2022-12-29T15:50:50;4.20;;;0.90;;
16579;SDS011;8402;51.466;6.806;2022-12-29T15:53:20;5.47;;;1.20;;
16579;SDS011;8402;51.466;6.806;2022-12-29T15:55:55;7.67;;;1.40;;
16579;SDS011;8402;51.466;6.806;2022-12-29T15:58:30;3.47;;;1.00;;
16579;SDS011;8402;51.466;6.806;2022-12-29T16:00:58;8.43;;;0.90;;
16579;SDS011;8402;51.466;6.806;2022-12-29T16:03:29;4.37;;;1.13;;
16579;SDS011;8402;51.466;6.806;2022-12-29T16:06:06;5.07;;;1.27;;